sensor_id;sensor_type;location;lat;lon;timestamp;temperature;humidity
2977;DHT22;1498;51.500;7.440;2022-11-15T00:00:28;11.80;99.90
2977;DHT22;1498;51.500;7.440;2022-11-15T00:02:53;11.90;99.90
2977;DHT22;1498;51.500;7.440;2022-11-15T00:05:19;11.90;99.90
2977;DHT22;1498;51.500;7.440;2022-11-15T00:07:45;11.90;99.90
2977;DHT22;1498;51.500;7.440;2022-11-15T00:10:10;12.00;99.90
2977;DHT22;1498;51.500;7.440;2022-11-15T00:12:36;12.00;99.90
2977;DHT22;1498;51.500;7.440;2022-11-15T00:15:02;12.10;99.90
2977;DHT22;1498;51.500;7.440;2022-11-15T00:17:28;12.10;99.90
2977;DHT22;1498;51.500;7.440;2022-11-15T00:19:53;12.10;99.90
2977;DHT22;1498;51.500;7.440;2022-11-15T00:22:19;12.10;99.90
2977;DHT22;1498;51.500;7.440;2022-11-15T00:24:45;12.10;99.90
2977;DHT22;1498;51.500;7.440;2022-11-15T00:27:10;12.10;99.90
2977;DHT22;1498;51.500;7.440;2022-11-15T00:29:36;12.10;99.90
2977;DHT22;1498;51.500;7.440;2022-11-15T00:32:04;12.10;99.90
2977;DHT22;1498;51.500;7.440;2022-11-15T00:34:30;12.10;99.90
2977;DHT22;1498;51.500;7.440;2022-11-15T00:36:55;12.20;99.90
2977;DHT22;1498;51.500;7.440;2022-11-15T00:39:21;12.20;99.90
2977;DHT22;1498;51.500;7.440;2022-11-15T00:41:47;12.20;99.90
2977;DHT22;1498;51.500;7.440;2022-11-15T00:44:12;12.30;99.90
2977;DHT22;1498;51.500;7.440;2022-11-15T00:46:38;12.40;99.90
2977;DHT22;1498;51.500;7.440;2022-11-15T00:49:03;12.40;99.90
2977;DHT22;1498;51.500;7.440;2022-11-15T00:51:30;12.40;99.90
2977;DHT22;1498;51.500;7.440;2022-11-15T00:53:55;12.40;99.90
2977;DHT22;1498;51.500;7.440;2022-11-15T00:56:21;12.40;99.90
2977;DHT22;1498;51.500;7.440;2022-11-15T00:58:46;12.40;99.90
2977;DHT22;1498;51.500;7.440;2022-11-15T01:01:13;12.50;99.90
2977;DHT22;1498;51.500;7.440;2022-11-15T01:03:40;12.50;99.90
2977;DHT22;1498;51.500;7.440;2022-11-15T01:06:07;12.60;99.90
2977;DHT22;1498;51.500;7.440;2022-11-15T01:08:34;12.60;99.90
2977;DHT22;1498;51.500;7.440;2022-11-15T01:11:04;12.60;99.90
2977;DHT22;1498;51.500;7.440;2022-11-15T01:13:32;12.70;99.90
2977;DHT22;1498;51.500;7.440;2022-11-15T01:15:59;12.80;99.90
2977;DHT22;1498;51.500;7.440;2022-11-15T01:18:24;12.80;99.90
2977;DHT22;1498;51.500;7.440;2022-11-15T01:20:50;12.90;99.90
2977;DHT22;1498;51.500;7.440;2022-11-15T01:23:16;12.90;99.90
2977;DHT22;1498;51.500;7.440;2022-11-15T01:25:41;12.90;99.90
2977;DHT22;1498;51.500;7.440;2022-11-15T01:28:07;12.90;99.90
2977;DHT22;1498;51.500;7.440;2022-11-15T01:30:32;12.90;99.90
2977;DHT22;1498;51.500;7.440;2022-11-15T05:31:33;13.60;99.90
2977;DHT22;1498;51.500;7.440;2022-11-15T05:34:00;13.70;99.90
2977;DHT22;1498;51.500;7.440;2022-11-15T05:36:31;13.70;99.90
2977;DHT22;1498;51.500;7.440;2022-11-15T05:38:58;13.70;99.90
2977;DHT22;1498;51.500;7.440;2022-11-15T05:41:30;13.60;99.90
2977;DHT22;1498;51.500;7.440;2022-11-15T05:43:57;13.60;99.90
2977;DHT22;1498;51.500;7.440;2022-11-15T05:46:23;13.60;99.90
2977;DHT22;1498;51.500;7.440;2022-11-15T05:48:50;13.70;99.90
2977;DHT22;1498;51.500;7.440;2022-11-15T05:51:17;13.60;99.90
2977;DHT22;1498;51.500;7.440;2022-11-15T05:53:44;13.60;99.90
2977;DHT22;1498;51.500;7.440;2022-11-15T05:56:10;13.60;99.90
2977;DHT22;1498;51.500;7.440;2022-11-15T05:58:37;13.60;99.90
2977;DHT22;1498;51.500;7.440;2022-11-15T06:01:02;13.60;99.90
2977;DHT22;1498;51.500;7.440;2022-11-15T06:03:28;13.70;99.90
2977;DHT22;1498;51.500;7.440;2022-11-15T06:05:54;13.70;99.90
2977;DHT22;1498;51.500;7.440;2022-11-15T06:08:19;13.60;99.90
2977;DHT22;1498;51.500;7.440;2022-11-15T06:10:45;13.60;99.90
2977;DHT22;1498;51.500;7.440;2022-11-15T06:13:10;13.50;99.90
2977;DHT22;1498;51.500;7.440;2022-11-15T06:15:36;13.50;99.90
2977;DHT22;1498;51.500;7.440;2022-11-15T06:18:01;13.60;99.90
2977;DHT22;1498;51.500;7.440;2022-11-15T06:20:28;13.50;99.90
2977;DHT22;1498;51.500;7.440;2022-11-15T06:23:02;13.50;99.90
2977;DHT22;1498;51.500;7.440;2022-11-15T06:25:29;13.60;99.90
2977;DHT22;1498;51.500;7.440;2022-11-15T06:27:55;13.60;99.90
2977;DHT22;1498;51.500;7.440;2022-11-15T06:30:22;13.50;99.90
2977;DHT22;1498;51.500;7.440;2022-11-15T06:32:48;13.60;99.90
2977;DHT22;1498;51.500;7.440;2022-11-15T06:35:14;13.60;99.90
2977;DHT22;1498;51.500;7.440;2022-11-15T06:37:40;13.60;99.90
2977;DHT22;1498;51.500;7.440;2022-11-15T06:40:07;13.60;99.90
2977;DHT22;1498;51.500;7.440;2022-11-15T06:42:33;13.70;99.90
2977;DHT22;1498;51.500;7.440;2022-11-15T06:44:59;13.70;99.90
2977;DHT22;1498;51.500;7.440;2022-11-15T06:47:25;13.70;99.90
2977;DHT22;1498;51.500;7.440;2022-11-15T06:49:50;13.70;99.90
2977;DHT22;1498;51.500;7.440;2022-11-15T06:52:16;13.70;99.90
2977;DHT22;1498;51.500;7.440;2022-11-15T06:54:43;13.80;99.90
2977;DHT22;1498;51.500;7.440;2022-11-15T06:57:09;13.80;99.90
2977;DHT22;1498;51.500;7.440;2022-11-15T06:59:35;13.80;99.90
2977;DHT22;1498;51.500;7.440;2022-11-15T07:02:01;13.90;99.90
2977;DHT22;1498;51.500;7.440;2022-11-15T07:04:27;13.90;99.90
2977;DHT22;1498;51.500;7.440;2022-11-15T07:06:52;13.90;99.90
2977;DHT22;1498;51.500;7.440;2022-11-15T07:09:18;13.90;99.90
2977;DHT22;1498;51.500;7.440;2022-11-15T07:11:43;13.80;99.90
2977;DHT22;1498;51.500;7.440;2022-11-15T07:14:09;13.90;99.90
2977;DHT22;1498;51.500;7.440;2022-11-15T07:16:36;13.90;99.90
2977;DHT22;1498;51.500;7.440;2022-11-15T07:19:02;13.90;99.90
2977;DHT22;1498;51.500;7.440;2022-11-15T07:21:27;13.90;99.90
2977;DHT22;1498;51.500;7.440;2022-11-15T07:23:53;13.90;99.90
2977;DHT22;1498;51.500;7.440;2022-11-15T07:26:18;13.80;99.90
2977;DHT22;1498;51.500;7.440;2022-11-15T07:28:44;13.90;99.90
2977;DHT22;1498;51.500;7.440;2022-11-15T07:31:10;13.90;99.90
2977;DHT22;1498;51.500;7.440;2022-11-15T07:33:35;13.90;99.90
2977;DHT22;1498;51.500;7.440;2022-11-15T07:36:03;13.90;99.90
2977;DHT22;1498;51.500;7.440;2022-11-15T07:38:29;13.90;99.90
2977;DHT22;1498;51.500;7.440;2022-11-15T07:40:59;14.00;99.90
2977;DHT22;1498;51.500;7.440;2022-11-15T07:43:25;14.00;99.90
2977;DHT22;1498;51.500;7.440;2022-11-15T07:45:53;13.90;99.90
2977;DHT22;1498;51.500;7.440;2022-11-15T07:48:19;13.80;99.90
2977;DHT22;1498;51.500;7.440;2022-11-15T07:50:45;13.90;99.90
2977;DHT22;1498;51.500;7.440;2022-11-15T07:53:10;13.90;99.90
2977;DHT22;1498;51.500;7.440;2022-11-15T07:55:36;13.90;99.90
2977;DHT22;1498;51.500;7.440;2022-11-15T07:58:09;13.80;99.90
2977;DHT22;1498;51.500;7.440;2022-11-15T08:00:36;13.80;99.90
2977;DHT22;1498;51.500;7.440;2022-11-15T08:03:15;13.90;99.90
2977;DHT22;1498;51.500;7.440;2022-11-15T08:05:42;13.90;99.90
2977;DHT22;1498;51.500;7.440;2022-11-15T08:08:09;13.90;99.90
2977;DHT22;1498;51.500;7.440;2022-11-15T08:10:36;13.90;99.90
2977;DHT22;1498;51.500;7.440;2022-11-15T08:13:04;13.90;99.90
2977;DHT22;1498;51.500;7.440;2022-11-15T08:15:30;13.90;99.90
2977;DHT22;1498;51.500;7.440;2022-11-15T08:17:58;13.90;99.90
2977;DHT22;1498;51.500;7.440;2022-11-15T08:20:24;13.90;99.90
2977;DHT22;1498;51.500;7.440;2022-11-15T08:22:50;13.90;99.90
2977;DHT22;1498;51.500;7.440;2022-11-15T08:25:16;14.00;99.90
2977;DHT22;1498;51.500;7.440;2022-11-15T08:27:41;14.00;99.90
2977;DHT22;1498;51.500;7.440;2022-11-15T08:30:07;13.90;99.90
2977;DHT22;1498;51.500;7.440;2022-11-15T08:32:33;13.90;99.90
2977;DHT22;1498;51.500;7.440;2022-11-15T08:34:59;13.80;99.90
2977;DHT22;1498;51.500;7.440;2022-11-15T08:37:24;13.90;99.90
2977;DHT22;1498;51.500;7.440;2022-11-15T08:39:50;13.90;99.90
2977;DHT22;1498;51.500;7.440;2022-11-15T08:42:15;14.10;99.90
2977;DHT22;1498;51.500;7.440;2022-11-15T08:44:41;14.20;99.90
2977;DHT22;1498;51.500;7.440;2022-11-15T08:47:07;14.10;99.90
2977;DHT22;1498;51.500;7.440;2022-11-15T08:49:33;14.10;99.90
2977;DHT22;1498;51.500;7.440;2022-11-15T08:51:59;14.10;99.90
2977;DHT22;1498;51.500;7.440;2022-11-15T08:54:24;14.10;99.90
2977;DHT22;1498;51.500;7.440;2022-11-15T08:56:49;14.10;99.90
2977;DHT22;1498;51.500;7.440;2022-11-15T08:59:15;14.10;99.90
2977;DHT22;1498;51.500;7.440;2022-11-15T09:01:40;14.10;99.90
2977;DHT22;1498;51.500;7.440;2022-11-15T09:04:06;14.10;99.90
2977;DHT22;1498;51.500;7.440;2022-11-15T09:06:31;14.20;99.90
2977;DHT22;1498;51.500;7.440;2022-11-15T09:08:57;14.20;99.90
2977;DHT22;1498;51.500;7.440;2022-11-15T09:11:23;14.30;99.90
2977;DHT22;1498;51.500;7.440;2022-11-15T09:13:49;14.30;99.90
2977;DHT22;1498;51.500;7.440;2022-11-15T09:16:15;14.20;99.90
2977;DHT22;1498;51.500;7.440;2022-11-15T09:18:41;14.20;99.90
2977;DHT22;1498;51.500;7.440;2022-11-15T09:21:07;14.40;99.90
2977;DHT22;1498;51.500;7.440;2022-11-15T09:23:33;14.40;99.90
2977;DHT22;1498;51.500;7.440;2022-11-15T09:26:00;14.40;99.90
2977;DHT22;1498;51.500;7.440;2022-11-15T09:28:27;14.40;99.90
2977;DHT22;1498;51.500;7.440;2022-11-15T09:30:57;14.40;99.90
2977;DHT22;1498;51.500;7.440;2022-11-15T09:33:24;14.30;99.90
2977;DHT22;1498;51.500;7.440;2022-11-15T09:35:50;14.30;99.90
2977;DHT22;1498;51.500;7.440;2022-11-15T09:38:15;14.30;99.90
2977;DHT22;1498;51.500;7.440;2022-11-15T09:40:41;14.30;99.90
2977;DHT22;1498;51.500;7.440;2022-11-15T09:43:17;14.30;99.90
2977;DHT22;1498;51.500;7.440;2022-11-15T09:48:38;14.40;99.90
2977;DHT22;1498;51.500;7.440;2022-11-15T09:51:14;14.40;99.90
2977;DHT22;1498;51.500;7.440;2022-11-15T09:54:05;14.40;99.90
2977;DHT22;1498;51.500;7.440;2022-11-15T09:56:40;14.40;99.90
2977;DHT22;1498;51.500;7.440;2022-11-15T09:59:40;14.50;99.90
2977;DHT22;1498;51.500;7.440;2022-11-15T10:04:34;14.50;99.90
2977;DHT22;1498;51.500;7.440;2022-11-15T10:09:55;14.50;99.90
2977;DHT22;1498;51.500;7.440;2022-11-15T10:12:22;14.60;99.90
2977;DHT22;1498;51.500;7.440;2022-11-15T10:14:51;14.70;99.90
2977;DHT22;1498;51.500;7.440;2022-11-15T10:17:48;14.60;99.90
2977;DHT22;1498;51.500;7.440;2022-11-15T10:20:23;14.70;99.90
2977;DHT22;1498;51.500;7.440;2022-11-15T10:23:05;14.70;99.90
2977;DHT22;1498;51.500;7.440;2022-11-15T10:25:34;14.70;99.90
2977;DHT22;1498;51.500;7.440;2022-11-15T10:30:40;14.90;99.90
2977;DHT22;1498;51.500;7.440;2022-11-15T10:35:37;14.90;99.90
2977;DHT22;1498;51.500;7.440;2022-11-15T10:38:09;14.90;99.90
2977;DHT22;1498;51.500;7.440;2022-11-15T10:40:36;14.70;99.90
2977;DHT22;1498;51.500;7.440;2022-11-15T10:43:10;15.00;99.90
2977;DHT22;1498;51.500;7.440;2022-11-15T10:45:38;15.00;99.90
2977;DHT22;1498;51.500;7.440;2022-11-15T10:50:40;15.20;99.90
2977;DHT22;1498;51.500;7.440;2022-11-15T10:53:20;15.20;99.90
2977;DHT22;1498;51.500;7.440;2022-11-15T10:55:49;15.20;99.90
2977;DHT22;1498;51.500;7.440;2022-11-15T10:58:39;15.30;99.90
2977;DHT22;1498;51.500;7.440;2022-11-15T11:01:12;15.30;99.90
2977;DHT22;1498;51.500;7.440;2022-11-15T11:03:39;15.40;99.90
2977;DHT22;1498;51.500;7.440;2022-11-15T11:08:36;15.40;99.90
2977;DHT22;1498;51.500;7.440;2022-11-15T11:11:03;15.40;99.90
2977;DHT22;1498;51.500;7.440;2022-11-15T11:16:18;15.50;99.90
2977;DHT22;1498;51.500;7.440;2022-11-15T11:19:17;15.40;99.90
2977;DHT22;1498;51.500;7.440;2022-11-15T11:35:02;15.90;99.90
2977;DHT22;1498;51.500;7.440;2022-11-15T11:37:40;16.00;99.90
2977;DHT22;1498;51.500;7.440;2022-11-15T11:42:56;16.30;99.90
2977;DHT22;1498;51.500;7.440;2022-11-15T11:50:34;16.50;99.90
2977;DHT22;1498;51.500;7.440;2022-11-15T11:53:32;16.30;99.90
2977;DHT22;1498;51.500;7.440;2022-11-15T11:56:23;16.40;99.90
2977;DHT22;1498;51.500;7.440;2022-11-15T11:58:50;16.30;99.90
2977;DHT22;1498;51.500;7.440;2022-11-15T12:03:51;16.40;99.90
2977;DHT22;1498;51.500;7.440;2022-11-15T12:09:20;16.30;99.90
2977;DHT22;1498;51.500;7.440;2022-11-15T12:12:13;16.30;99.90
2977;DHT22;1498;51.500;7.440;2022-11-15T12:15:10;16.30;99.90
2977;DHT22;1498;51.500;7.440;2022-11-15T12:17:40;16.30;99.90
2977;DHT22;1498;51.500;7.440;2022-11-15T12:20:32;16.10;99.10
2977;DHT22;1498;51.500;7.440;2022-11-15T12:23:19;16.10;99.50
2977;DHT22;1498;51.500;7.440;2022-11-15T12:26:11;16.00;99.50
2977;DHT22;1498;51.500;7.440;2022-11-15T12:28:47;16.00;98.50
2977;DHT22;1498;51.500;7.440;2022-11-15T12:31:59;15.90;97.40
2977;DHT22;1498;51.500;7.440;2022-11-15T12:34:02;15.80;98.30
2977;DHT22;1498;51.500;7.440;2022-11-15T12:38:59;15.80;98.40
2977;DHT22;1498;51.500;7.440;2022-11-15T12:41:29;15.80;97.90
2977;DHT22;1498;51.500;7.440;2022-11-15T12:43:56;15.80;98.10
2977;DHT22;1498;51.500;7.440;2022-11-15T12:59:52;15.70;99.90
2977;DHT22;1498;51.500;7.440;2022-11-15T13:02:49;15.70;99.90
2977;DHT22;1498;51.500;7.440;2022-11-15T13:08:00;15.70;99.90
2977;DHT22;1498;51.500;7.440;2022-11-15T13:17:51;15.60;99.90
2977;DHT22;1498;51.500;7.440;2022-11-15T13:20:18;15.50;99.90
2977;DHT22;1498;51.500;7.440;2022-11-15T13:23:10;15.50;99.90
2977;DHT22;1498;51.500;7.440;2022-11-15T13:30:50;15.40;99.90
2977;DHT22;1498;51.500;7.440;2022-11-15T13:33:20;15.50;99.90
2977;DHT22;1498;51.500;7.440;2022-11-15T13:35:50;15.50;99.90
2977;DHT22;1498;51.500;7.440;2022-11-15T13:38:30;15.60;99.90
2977;DHT22;1498;51.500;7.440;2022-11-15T13:40:57;15.60;99.90
2977;DHT22;1498;51.500;7.440;2022-11-15T13:48:30;15.50;99.90
2977;DHT22;1498;51.500;7.440;2022-11-15T13:50:56;15.40;99.90
2977;DHT22;1498;51.500;7.440;2022-11-15T13:53:22;15.40;99.90
2977;DHT22;1498;51.500;7.440;2022-11-15T13:55:48;15.40;99.90
2977;DHT22;1498;51.500;7.440;2022-11-15T13:58:14;15.40;99.90
2977;DHT22;1498;51.500;7.440;2022-11-15T14:00:44;15.20;99.90
2977;DHT22;1498;51.500;7.440;2022-11-15T14:03:23;15.20;99.90
2977;DHT22;1498;51.500;7.440;2022-11-15T14:06:08;15.20;99.90
2977;DHT22;1498;51.500;7.440;2022-11-15T14:08:41;15.20;99.90
2977;DHT22;1498;51.500;7.440;2022-11-15T14:13:33;15.10;99.90
2977;DHT22;1498;51.500;7.440;2022-11-15T14:16:20;15.10;99.90
2977;DHT22;1498;51.500;7.440;2022-11-15T14:18:48;15.00;99.90
2977;DHT22;1498;51.500;7.440;2022-11-15T14:21:14;15.10;99.90
2977;DHT22;1498;51.500;7.440;2022-11-15T14:23:41;15.00;99.90
2977;DHT22;1498;51.500;7.440;2022-11-15T14:26:32;14.90;99.90
2977;DHT22;1498;51.500;7.440;2022-11-15T14:29:24;14.80;99.90
2977;DHT22;1498;51.500;7.440;2022-11-15T14:31:49;14.80;99.90
2977;DHT22;1498;51.500;7.440;2022-11-15T14:34:15;14.80;99.90
2977;DHT22;1498;51.500;7.440;2022-11-15T14:36:40;14.80;99.90
2977;DHT22;1498;51.500;7.440;2022-11-15T14:39:06;14.80;99.90
2977;DHT22;1498;51.500;7.440;2022-11-15T14:41:35;14.90;99.90
2977;DHT22;1498;51.500;7.440;2022-11-15T14:44:04;15.00;99.90
2977;DHT22;1498;51.500;7.440;2022-11-15T14:46:29;14.80;99.90
2977;DHT22;1498;51.500;7.440;2022-11-15T14:48:55;14.80;99.90
2977;DHT22;1498;51.500;7.440;2022-11-15T14:51:21;14.80;99.90
2977;DHT22;1498;51.500;7.440;2022-11-15T14:53:47;14.70;99.90
2977;DHT22;1498;51.500;7.440;2022-11-15T14:56:14;14.70;99.90
2977;DHT22;1498;51.500;7.440;2022-11-15T14:58:40;14.70;99.90
2977;DHT22;1498;51.500;7.440;2022-11-15T15:01:22;14.70;99.90
2977;DHT22;1498;51.500;7.440;2022-11-15T15:03:48;14.70;99.90
2977;DHT22;1498;51.500;7.440;2022-11-15T15:06:14;14.80;99.90
2977;DHT22;1498;51.500;7.440;2022-11-15T15:08:40;14.80;99.90
2977;DHT22;1498;51.500;7.440;2022-11-15T15:11:21;14.80;99.90
2977;DHT22;1498;51.500;7.440;2022-11-15T15:13:47;14.80;99.90
2977;DHT22;1498;51.500;7.440;2022-11-15T15:16:13;14.70;99.90
2977;DHT22;1498;51.500;7.440;2022-11-15T15:18:39;14.70;99.90
2977;DHT22;1498;51.500;7.440;2022-11-15T15:21:17;14.70;99.90
2977;DHT22;1498;51.500;7.440;2022-11-15T15:23:43;14.70;99.90
2977;DHT22;1498;51.500;7.440;2022-11-15T15:26:09;14.80;99.90
2977;DHT22;1498;51.500;7.440;2022-11-15T15:28:34;14.80;99.90
2977;DHT22;1498;51.500;7.440;2022-11-15T15:31:00;14.80;99.90
2977;DHT22;1498;51.500;7.440;2022-11-15T15:33:26;14.80;99.90
2977;DHT22;1498;51.500;7.440;2022-11-15T15:35:52;14.80;99.90
2977;DHT22;1498;51.500;7.440;2022-11-15T15:38:17;14.80;99.90
2977;DHT22;1498;51.500;7.440;2022-11-15T15:40:43;14.80;99.90
2977;DHT22;1498;51.500;7.440;2022-11-15T15:43:08;14.80;99.90
2977;DHT22;1498;51.500;7.440;2022-11-15T15:45:37;14.80;99.90
2977;DHT22;1498;51.500;7.440;2022-11-15T15:48:03;14.80;99.90
2977;DHT22;1498;51.500;7.440;2022-11-15T15:50:37;14.80;99.90
2977;DHT22;1498;51.500;7.440;2022-11-15T15:53:04;14.80;99.90
2977;DHT22;1498;51.500;7.440;2022-11-15T15:55:30;14.70;99.90
2977;DHT22;1498;51.500;7.440;2022-11-15T15:57:55;14.80;99.90
2977;DHT22;1498;51.500;7.440;2022-11-15T16:00:23;14.80;99.90
2977;DHT22;1498;51.500;7.440;2022-11-15T16:02:50;14.70;99.90
2977;DHT22;1498;51.500;7.440;2022-11-15T16:05:16;14.70;99.90
2977;DHT22;1498;51.500;7.440;2022-11-15T16:07:42;14.70;99.90
2977;DHT22;1498;51.500;7.440;2022-11-15T16:10:16;14.70;99.90
2977;DHT22;1498;51.500;7.440;2022-11-15T16:12:42;14.60;99.90
2977;DHT22;1498;51.500;7.440;2022-11-15T16:15:08;14.60;99.90
2977;DHT22;1498;51.500;7.440;2022-11-15T16:17:38;14.60;99.90
2977;DHT22;1498;51.500;7.440;2022-11-15T16:20:05;14.70;99.90
2977;DHT22;1498;51.500;7.440;2022-11-15T16:22:30;14.70;99.90
2977;DHT22;1498;51.500;7.440;2022-11-15T16:24:56;14.60;99.90
2977;DHT22;1498;51.500;7.440;2022-11-15T16:27:22;14.60;99.90
2977;DHT22;1498;51.500;7.440;2022-11-15T16:29:48;14.70;99.90
2977;DHT22;1498;51.500;7.440;2022-11-15T16:32:15;14.60;99.90
2977;DHT22;1498;51.500;7.440;2022-11-15T16:34:41;14.60;99.90
2977;DHT22;1498;51.500;7.440;2022-11-15T16:37:21;14.60;99.90
2977;DHT22;1498;51.500;7.440;2022-11-15T16:39:47;14.70;99.90
2977;DHT22;1498;51.500;7.440;2022-11-15T16:42:13;14.70;99.90
2977;DHT22;1498;51.500;7.440;2022-11-15T16:44:38;14.70;99.90
2977;DHT22;1498;51.500;7.440;2022-11-15T16:47:04;14.70;99.90
2977;DHT22;1498;51.500;7.440;2022-11-15T16:49:29;14.80;99.90
2977;DHT22;1498;51.500;7.440;2022-11-15T16:51:55;14.70;99.90
2977;DHT22;1498;51.500;7.440;2022-11-15T16:54:20;14.70;99.90
2977;DHT22;1498;51.500;7.440;2022-11-15T16:56:46;14.70;99.90
2977;DHT22;1498;51.500;7.440;2022-11-15T16:59:15;14.70;99.90
2977;DHT22;1498;51.500;7.440;2022-11-15T17:01:42;14.70;99.90
2977;DHT22;1498;51.500;7.440;2022-11-15T17:04:15;14.70;99.90
2977;DHT22;1498;51.500;7.440;2022-11-15T17:06:43;14.70;99.90
2977;DHT22;1498;51.500;7.440;2022-11-15T17:09:11;14.60;99.90
2977;DHT22;1498;51.500;7.440;2022-11-15T17:11:37;14.60;99.90
2977;DHT22;1498;51.500;7.440;2022-11-15T17:14:03;14.60;99.90
2977;DHT22;1498;51.500;7.440;2022-11-15T17:16:28;14.70;99.90
2977;DHT22;1498;51.500;7.440;2022-11-15T17:18:54;14.70;99.90
2977;DHT22;1498;51.500;7.440;2022-11-15T17:21:20;14.60;99.90
2977;DHT22;1498;51.500;7.440;2022-11-15T17:23:46;14.60;99.90
2977;DHT22;1498;51.500;7.440;2022-11-15T17:26:14;14.80;99.90
2977;DHT22;1498;51.500;7.440;2022-11-15T17:28:40;14.70;99.90
2977;DHT22;1498;51.500;7.440;2022-11-15T17:31:08;14.70;99.90
2977;DHT22;1498;51.500;7.440;2022-11-15T17:33:34;14.80;99.90
2977;DHT22;1498;51.500;7.440;2022-11-15T17:36:02;14.50;99.90
2977;DHT22;1498;51.500;7.440;2022-11-15T17:38:28;14.70;99.90
2977;DHT22;1498;51.500;7.440;2022-11-15T17:41:03;14.60;99.90
2977;DHT22;1498;51.500;7.440;2022-11-15T17:43:31;14.70;99.90
2977;DHT22;1498;51.500;7.440;2022-11-15T17:45:57;14.70;99.90
2977;DHT22;1498;51.500;7.440;2022-11-15T17:48:23;14.70;99.90
2977;DHT22;1498;51.500;7.440;2022-11-15T17:50:54;14.70;99.90
2977;DHT22;1498;51.500;7.440;2022-11-15T17:53:20;14.70;99.90
2977;DHT22;1498;51.500;7.440;2022-11-15T17:55:46;14.70;99.90
2977;DHT22;1498;51.500;7.440;2022-11-15T17:58:11;14.70;99.90
2977;DHT22;1498;51.500;7.440;2022-11-15T18:00:37;14.70;99.90
2977;DHT22;1498;51.500;7.440;2022-11-15T18:03:02;14.70;99.90
2977;DHT22;1498;51.500;7.440;2022-11-15T18:05:28;14.60;99.90
2977;DHT22;1498;51.500;7.440;2022-11-15T18:07:53;14.50;99.90
2977;DHT22;1498;51.500;7.440;2022-11-15T18:10:19;14.50;99.90
2977;DHT22;1498;51.500;7.440;2022-11-15T18:12:44;14.70;99.90
2977;DHT22;1498;51.500;7.440;2022-11-15T18:15:10;14.60;99.90
2977;DHT22;1498;51.500;7.440;2022-11-15T18:17:35;14.60;99.90
2977;DHT22;1498;51.500;7.440;2022-11-15T18:20:02;14.60;99.90
2977;DHT22;1498;51.500;7.440;2022-11-15T18:22:28;14.50;99.90
2977;DHT22;1498;51.500;7.440;2022-11-15T18:24:53;14.60;99.90
2977;DHT22;1498;51.500;7.440;2022-11-15T18:27:19;14.60;99.90
2977;DHT22;1498;51.500;7.440;2022-11-15T18:29:44;14.60;99.90
2977;DHT22;1498;51.500;7.440;2022-11-15T18:32:10;14.50;99.90
2977;DHT22;1498;51.500;7.440;2022-11-15T18:34:37;14.60;99.90
2977;DHT22;1498;51.500;7.440;2022-11-15T18:37:03;14.60;99.90
2977;DHT22;1498;51.500;7.440;2022-11-15T18:39:29;14.70;99.90
2977;DHT22;1498;51.500;7.440;2022-11-15T18:41:54;14.70;99.90
2977;DHT22;1498;51.500;7.440;2022-11-15T18:44:20;14.70;99.90
2977;DHT22;1498;51.500;7.440;2022-11-15T18:46:45;14.60;99.90
2977;DHT22;1498;51.500;7.440;2022-11-15T18:49:13;14.60;99.90
2977;DHT22;1498;51.500;7.440;2022-11-15T18:51:39;14.60;99.90
2977;DHT22;1498;51.500;7.440;2022-11-15T18:54:11;14.60;99.90
2977;DHT22;1498;51.500;7.440;2022-11-15T18:56:38;14.60;99.90
2977;DHT22;1498;51.500;7.440;2022-11-15T18:59:04;14.70;99.90
2977;DHT22;1498;51.500;7.440;2022-11-15T19:01:37;14.70;99.90
2977;DHT22;1498;51.500;7.440;2022-11-15T19:04:09;14.70;99.90
2977;DHT22;1498;51.500;7.440;2022-11-15T19:06:40;14.80;99.90
2977;DHT22;1498;51.500;7.440;2022-11-15T19:09:07;14.70;99.90
2977;DHT22;1498;51.500;7.440;2022-11-15T19:11:34;14.70;99.90
2977;DHT22;1498;51.500;7.440;2022-11-15T19:14:03;14.70;99.90
2977;DHT22;1498;51.500;7.440;2022-11-15T19:16:30;14.70;99.90
2977;DHT22;1498;51.500;7.440;2022-11-15T19:19:00;14.70;99.90
2977;DHT22;1498;51.500;7.440;2022-11-15T19:21:26;14.70;99.90
2977;DHT22;1498;51.500;7.440;2022-11-15T19:23:53;14.70;99.90
2977;DHT22;1498;51.500;7.440;2022-11-15T19:26:19;14.80;99.90
2977;DHT22;1498;51.500;7.440;2022-11-15T19:28:53;14.80;99.90
2977;DHT22;1498;51.500;7.440;2022-11-15T19:31:19;14.80;99.90
2977;DHT22;1498;51.500;7.440;2022-11-15T19:33:46;14.90;99.90
2977;DHT22;1498;51.500;7.440;2022-11-15T19:38:37;14.90;99.90
2977;DHT22;1498;51.500;7.440;2022-11-15T19:41:05;14.90;99.90
2977;DHT22;1498;51.500;7.440;2022-11-15T19:43:31;14.90;99.90
2977;DHT22;1498;51.500;7.440;2022-11-15T19:46:02;14.90;99.90
2977;DHT22;1498;51.500;7.440;2022-11-15T19:48:29;14.80;99.90
2977;DHT22;1498;51.500;7.440;2022-11-15T19:51:05;14.90;99.90
2977;DHT22;1498;51.500;7.440;2022-11-15T19:53:32;14.80;99.90
2977;DHT22;1498;51.500;7.440;2022-11-15T19:56:00;14.90;99.90
2977;DHT22;1498;51.500;7.440;2022-11-15T19:58:26;14.80;99.90
2977;DHT22;1498;51.500;7.440;2022-11-15T20:01:05;14.80;99.90
2977;DHT22;1498;51.500;7.440;2022-11-15T20:03:33;14.90;99.90
2977;DHT22;1498;51.500;7.440;2022-11-15T20:06:03;14.80;99.90
2977;DHT22;1498;51.500;7.440;2022-11-15T20:08:29;14.90;99.90
2977;DHT22;1498;51.500;7.440;2022-11-15T20:10:54;14.90;99.90
2977;DHT22;1498;51.500;7.440;2022-11-15T20:13:20;14.90;99.90
2977;DHT22;1498;51.500;7.440;2022-11-15T20:15:45;14.90;99.90
2977;DHT22;1498;51.500;7.440;2022-11-15T20:18:11;14.90;99.90
2977;DHT22;1498;51.500;7.440;2022-11-15T20:20:36;15.00;99.90
2977;DHT22;1498;51.500;7.440;2022-11-15T20:23:02;14.90;99.90
2977;DHT22;1498;51.500;7.440;2022-11-15T20:25:27;14.90;99.90
2977;DHT22;1498;51.500;7.440;2022-11-15T20:27:54;15.00;99.90
2977;DHT22;1498;51.500;7.440;2022-11-15T20:30:20;14.80;99.90
2977;DHT22;1498;51.500;7.440;2022-11-15T20:32:45;14.80;99.90
2977;DHT22;1498;51.500;7.440;2022-11-15T20:35:11;14.80;99.90
2977;DHT22;1498;51.500;7.440;2022-11-15T20:37:36;14.70;99.90
2977;DHT22;1498;51.500;7.440;2022-11-15T20:40:02;14.80;99.90
2977;DHT22;1498;51.500;7.440;2022-11-15T20:42:28;14.70;99.90
2977;DHT22;1498;51.500;7.440;2022-11-15T20:44:53;14.80;99.90
2977;DHT22;1498;51.500;7.440;2022-11-15T20:47:19;14.80;99.90
2977;DHT22;1498;51.500;7.440;2022-11-15T20:49:44;14.80;99.90
2977;DHT22;1498;51.500;7.440;2022-11-15T20:52:10;14.70;99.90
2977;DHT22;1498;51.500;7.440;2022-11-15T20:54:35;14.80;99.90
2977;DHT22;1498;51.500;7.440;2022-11-15T20:57:01;14.80;99.90
2977;DHT22;1498;51.500;7.440;2022-11-15T20:59:26;14.70;99.90
2977;DHT22;1498;51.500;7.440;2022-11-15T21:01:52;14.60;99.90
2977;DHT22;1498;51.500;7.440;2022-11-15T21:04:18;14.50;99.90
2977;DHT22;1498;51.500;7.440;2022-11-15T21:06:43;14.50;99.90
2977;DHT22;1498;51.500;7.440;2022-11-15T21:09:10;14.60;99.90
2977;DHT22;1498;51.500;7.440;2022-11-15T21:11:54;14.50;99.90
2977;DHT22;1498;51.500;7.440;2022-11-15T21:14:39;14.50;99.90
2977;DHT22;1498;51.500;7.440;2022-11-15T21:17:05;14.40;99.90
2977;DHT22;1498;51.500;7.440;2022-11-15T21:19:30;14.50;99.90
2977;DHT22;1498;51.500;7.440;2022-11-15T21:21:56;14.50;99.90
2977;DHT22;1498;51.500;7.440;2022-11-15T21:24:21;14.50;99.90
2977;DHT22;1498;51.500;7.440;2022-11-15T21:26:49;14.60;99.90
2977;DHT22;1498;51.500;7.440;2022-11-15T21:29:15;14.50;99.90
2977;DHT22;1498;51.500;7.440;2022-11-15T21:31:49;14.60;99.90
2977;DHT22;1498;51.500;7.440;2022-11-15T21:34:16;14.50;99.90
2977;DHT22;1498;51.500;7.440;2022-11-15T21:36:41;14.50;99.90